Accueil
METAR-TAF:

METAR-TAF

Aéroports :

Aéroport de Milaga

Tripoli, Libye

latitude: 32-54N, longitude: 13-17E, altitude: 11 m

METAR: absent

Heure: 09:01 (07:01 UTC)

Prévision

Le bulletin a été fait il y a 20 heures et 1 minutes, à 11:00 UTC
Prévision valable du 16 à 12 UTC au 17 à 12 UTC
Vent 15 kt de ouest
Visibilité 10 km ou plus
Nuages épars à une hauteur de 3000 ft
Evoluant progressivement
du 16 à 18 UTC au 16 à UTC
Vent 10 kt de sud/sud-ouest
Visibilité: 8000 m

TAF: HLLM 161100Z 1612/1712 27015KT 9999 SCT030 BECMG 1618/16 20 20010KT 8000 NSC

Observations et prévisions météorologiques de plus de 4000 aéroports (messages METAR et TAF).

Les stations disponibles sont représentées par des disques jaunes et rouges sur la carte.

Passer la souris dessus pour voir le nom de la station.

Cliquer dessus pour voir les observations et prévisions météorologiques.

Pour changer de carte: cliquez sur les boutons verts avec une croix noire pour zoomer, sur le bouton vert avec un tiret pour effectuer un zoom arrière, ou sur les flèches vertes pour les cartes adjacentes.


METAR-TAF: